Time;durP1;ratioP1;P1;durP2;ratioP2;P2;SDS_P1;SDS_P2;PMS_P1;PMS_P2;Temp;Humidity;BMP_temperature;BMP_pressure;BME280_temperature;BME280_humidity;BME280_pressure;Samples;Min_cycle;Max_cycle;Signal;HPM_P1;HPM_P2
2021/07/19 00:02:07;;;;;;;7.57;3.77;;;15.80;99.90;;;;;;5102560;28;20191;-47
2021/07/19 00:04:36;;;;;;;9.70;2.97;;;15.70;99.90;;;;;;5103486;28;20213;-49
2021/07/19 00:07:03;;;;;;;11.33;3.57;;;15.70;99.90;;;;;;5092136;28;20322;-45
2021/07/19 00:09:29;;;;;;;12.03;3.30;;;15.80;99.90;;;;;;5104131;27;20582;-46
2021/07/19 00:11:56;;;;;;;9.83;3.63;;;15.70;99.90;;;;;;5087792;28;20205;-44
2021/07/19 00:14:22;;;;;;;10.80;3.87;;;15.70;99.90;;;;;;5104166;28;20209;-44
2021/07/19 00:16:49;;;;;;;8.57;3.47;;;15.70;99.90;;;;;;5100412;28;20196;-49
2021/07/19 00:19:17;;;;;;;6.90;3.73;;;15.70;99.90;;;;;;5096590;28;20193;-44
2021/07/19 00:21:44;;;;;;;7.20;3.07;;;15.80;99.90;;;;;;5094879;28;20193;-53
2021/07/19 00:24:10;;;;;;;14.03;3.63;;;15.80;99.90;;;;;;5100609;28;20221;-44
2021/07/19 00:26:37;;;;;;;9.57;3.53;;;15.80;99.90;;;;;;5097448;28;20213;-54
2021/07/19 00:29:04;;;;;;;10.03;3.70;;;15.80;99.90;;;;;;5095027;28;20193;-46
2021/07/19 00:31:32;;;;;;;9.47;3.17;;;15.80;99.90;;;;;;5103914;28;20204;-49
2021/07/19 00:33:59;;;;;;;12.07;3.73;;;15.80;99.90;;;;;;5098070;28;20300;-44
2021/07/19 00:36:27;;;;;;;10.00;3.30;;;15.80;99.90;;;;;;5103722;28;20192;-47
2021/07/19 00:38:54;;;;;;;8.70;3.47;;;15.80;99.90;;;;;;5090670;28;20201;-47
2021/07/19 00:41:22;;;;;;;7.60;3.27;;;15.80;99.90;;;;;;5098830;28;20194;-47
2021/07/19 00:43:50;;;;;;;9.40;3.33;;;15.80;99.90;;;;;;5086747;28;20221;-53
2021/07/19 00:46:17;;;;;;;7.77;3.67;;;15.80;99.90;;;;;;5102129;28;20493;-44
2021/07/19 00:48:44;;;;;;;12.53;3.17;;;15.70;99.90;;;;;;5096164;28;20290;-50
2021/07/19 00:51:13;;;;;;;10.33;3.97;;;15.70;99.90;;;;;;5102295;28;20232;-44
2021/07/19 00:53:41;;;;;;;13.50;3.80;;;15.80;99.90;;;;;;5097429;28;20731;-49
2021/07/19 00:56:10;;;;;;;8.10;3.57;;;15.80;99.90;;;;;;5098041;28;20332;-44
2021/07/19 00:58:39;;;;;;;9.63;2.93;;;15.80;99.90;;;;;;5088400;28;20693;-51
2021/07/19 01:01:09;;;;;;;8.57;3.30;;;15.80;99.90;;;;;;5101152;28;20940;-44
2021/07/19 01:03:36;;;;;;;10.73;3.33;;;15.80;99.90;;;;;;5102477;28;20235;-52
2021/07/19 01:06:03;;;;;;;11.40;3.67;;;15.80;99.90;;;;;;5101109;28;20966;-44
2021/07/19 01:08:32;;;;;;;8.33;3.27;;;15.80;99.90;;;;;;5103264;28;20213;-50
2021/07/19 01:11:03;;;;;;;9.53;3.30;;;15.80;99.90;;;;;;5092949;28;20201;-46
2021/07/19 01:13:31;;;;;;;9.40;3.40;;;15.80;99.90;;;;;;5083586;28;20687;-48
2021/07/19 01:15:58;;;;;;;9.47;3.50;;;15.80;99.90;;;;;;5079741;28;20184;-44
2021/07/19 01:18:26;;;;;;;7.10;3.10;;;15.80;99.90;;;;;;5101691;28;20209;-47
2021/07/19 01:21:42;;;;;;;9.33;3.73;;;15.80;99.90;;;;;;5099024;28;20385;-46
2021/07/19 01:24:30;;;;;;;10.23;3.47;;;15.80;99.90;;;;;;5056432;28;20232;-46
2021/07/19 01:27:45;;;;;;;6.27;2.60;;;15.80;99.90;;;;;;5102382;28;20284;-45
2021/07/19 01:30:13;;;;;;;8.60;3.33;;;15.80;99.90;;;;;;5103998;28;20225;-45
2021/07/19 01:32:43;;;;;;;9.50;3.17;;;15.80;99.90;;;;;;5105183;28;20565;-47
2021/07/19 01:35:12;;;;;;;8.90;3.73;;;15.80;99.90;;;;;;5106379;28;20213;-45
2021/07/19 01:37:40;;;;;;;7.17;3.13;;;15.80;99.90;;;;;;5105720;28;20197;-47
2021/07/19 01:40:26;;;;;;;9.70;3.57;;;15.90;99.90;;;;;;5098259;28;20205;-45
2021/07/19 01:42:57;;;;;;;9.93;4.23;;;15.90;99.90;;;;;;5101302;28;20424;-44
2021/07/19 01:45:25;;;;;;;8.10;2.60;;;15.90;99.90;;;;;;5094127;28;20678;-45
2021/07/19 01:47:53;;;;;;;11.83;3.10;;;15.90;99.90;;;;;;5100558;28;20247;-44
2021/07/19 01:50:20;;;;;;;11.43;3.43;;;15.90;99.90;;;;;;5105547;28;20242;-46
2021/07/19 01:53:15;;;;;;;7.20;2.90;;;15.80;99.90;;;;;;5106731;28;20561;-45
2021/07/19 01:55:43;;;;;;;5.80;2.97;;;15.90;99.90;;;;;;5095297;28;20659;-47
2021/07/19 01:58:12;;;;;;;8.73;2.83;;;15.80;99.90;;;;;;5105922;28;20243;-47
2021/07/19 02:00:44;;;;;;;9.80;3.67;;;15.90;99.90;;;;;;5090092;28;20213;-47
2021/07/19 02:03:12;;;;;;;11.30;3.30;;;15.90;99.90;;;;;;5106025;28;20293;-47
2021/07/19 02:05:49;;;;;;;6.90;2.83;;;15.90;99.90;;;;;;5102057;28;20900;-47
2021/07/19 02:08:21;;;;;;;5.27;3.20;;;15.90;99.90;;;;;;5105291;28;20236;-45
2021/07/19 02:11:14;;;;;;;6.27;3.60;;;15.90;99.90;;;;;;5096292;28;20204;-44
2021/07/19 02:13:44;;;;;;;9.37;3.30;;;15.90;99.90;;;;;;5103011;28;20221;-48
2021/07/19 02:16:15;;;;;;;10.20;2.77;;;15.90;99.90;;;;;;5088902;28;20207;-46
2021/07/19 02:18:46;;;;;;;9.77;3.23;;;15.90;99.90;;;;;;5101611;28;20246;-50
2021/07/19 02:21:14;;;;;;;10.67;3.37;;;15.90;99.90;;;;;;5104705;28;20197;-45
2021/07/19 02:24:04;;;;;;;10.60;3.20;;;15.90;99.90;;;;;;5103488;28;20214;-45
2021/07/19 02:26:40;;;;;;;7.70;2.93;;;15.90;99.90;;;;;;5098932;28;20216;-50
2021/07/19 02:29:08;;;;;;;6.57;2.50;;;15.90;99.90;;;;;;5099318;28;20197;-44
2021/07/19 02:31:38;;;;;;;6.63;3.07;;;15.90;99.90;;;;;;5091102;28;20632;-47
2021/07/19 02:34:06;;;;;;;7.17;3.27;;;15.90;99.90;;;;;;5102442;28;20266;-45
2021/07/19 02:36:34;;;;;;;6.80;3.13;;;15.90;99.90;;;;;;5105214;28;20193;-50
2021/07/19 02:39:01;;;;;;;7.13;3.10;;;15.80;99.90;;;;;;5101924;28;20197;-45
2021/07/19 02:41:29;;;;;;;11.03;3.43;;;15.90;99.90;;;;;;5106291;28;20727;-45
2021/07/19 02:44:07;;;;;;;10.00;3.30;;;15.90;99.90;;;;;;5098942;28;20294;-45
2021/07/19 02:46:53;;;;;;;9.57;3.73;;;15.90;99.90;;;;;;5086572;28;20264;-47
2021/07/19 02:49:21;;;;;;;7.57;2.70;;;15.80;99.90;;;;;;5099108;28;20194;-45
2021/07/19 02:51:51;;;;;;;7.00;2.90;;;15.80;99.90;;;;;;5100998;28;20263;-50
2021/07/19 02:54:20;;;;;;;6.90;2.80;;;15.80;99.90;;;;;;5104331;28;20720;-44
2021/07/19 02:56:49;;;;;;;6.20;2.83;;;15.80;99.90;;;;;;5102090;28;20221;-46
2021/07/19 02:59:16;;;;;;;9.50;3.53;;;15.80;99.90;;;;;;5095257;28;20254;-46
2021/07/19 03:01:51;;;;;;;4.10;3.20;;;15.90;99.90;;;;;;5101753;28;20250;-48
2021/07/19 03:04:20;;;;;;;10.27;3.83;;;15.90;99.90;;;;;;5080277;28;20271;-47
2021/07/19 03:06:50;;;;;;;6.77;3.50;;;15.90;99.90;;;;;;5081292;28;20750;-49
2021/07/19 03:09:20;;;;;;;10.10;3.67;;;15.90;99.90;;;;;;5084839;28;20198;-44
2021/07/19 03:11:49;;;;;;;7.80;3.30;;;15.90;99.90;;;;;;5081767;28;20554;-46
2021/07/19 03:14:25;;;;;;;7.13;3.37;;;15.90;99.90;;;;;;5091672;28;20228;-45
2021/07/19 03:16:57;;;;;;;7.57;4.00;;;15.90;99.90;;;;;;5098308;28;20181;-44
2021/07/19 03:19:26;;;;;;;5.23;3.40;;;15.90;99.90;;;;;;5086172;28;20675;-46
2021/07/19 03:21:56;;;;;;;5.80;3.57;;;15.90;99.90;;;;;;5079343;28;20186;-45
2021/07/19 03:24:35;;;;;;;5.40;3.60;;;15.90;99.90;;;;;;5082820;28;20261;-48
2021/07/19 03:27:04;;;;;;;6.50;3.70;;;15.80;99.90;;;;;;5080770;28;20311;-46
2021/07/19 03:29:33;;;;;;;8.13;3.77;;;15.90;99.90;;;;;;5092417;28;20205;-46
2021/07/19 03:32:19;;;;;;;9.57;3.87;;;15.90;99.90;;;;;;5093841;28;20961;-46
2021/07/19 03:34:49;;;;;;;12.27;4.10;;;15.80;99.90;;;;;;5077649;28;20237;-49
2021/07/19 03:37:18;;;;;;;9.67;3.90;;;15.90;99.90;;;;;;5103809;28;20194;-45
2021/07/19 03:39:46;;;;;;;5.87;3.53;;;15.90;99.90;;;;;;5101788;28;20662;-47
2021/07/19 03:42:19;;;;;;;10.97;4.50;;;15.90;99.90;;;;;;5104568;28;20212;-47
2021/07/19 03:44:52;;;;;;;14.13;4.73;;;15.90;99.90;;;;;;5090126;28;20950;-47
2021/07/19 03:47:22;;;;;;;7.70;3.63;;;15.90;99.90;;;;;;5102310;28;20575;-47
2021/07/19 03:49:54;;;;;;;8.43;3.40;;;15.90;99.90;;;;;;5087361;28;20201;-49
2021/07/19 03:52:23;;;;;;;6.43;3.50;;;15.90;99.90;;;;;;5103601;28;20193;-45
2021/07/19 03:54:51;;;;;;;9.10;3.57;;;15.90;99.90;;;;;;5099021;28;20304;-45
2021/07/19 03:57:19;;;;;;;8.80;3.70;;;15.90;99.90;;;;;;5103186;28;20682;-45
2021/07/19 03:59:47;;;;;;;9.33;3.50;;;16.00;99.90;;;;;;5090266;28;20201;-45
2021/07/19 04:02:24;;;;;;;9.30;3.97;;;16.00;99.90;;;;;;5103053;28;20542;-44
2021/07/19 04:05:03;;;;;;;9.90;3.80;;;16.00;99.90;;;;;;5087378;28;20268;-46
2021/07/19 04:07:31;;;;;;;6.40;3.83;;;16.00;99.90;;;;;;5102694;28;20729;-46
2021/07/19 04:09:58;;;;;;;5.47;4.37;;;16.00;99.90;;;;;;5099034;28;20919;-49
2021/07/19 04:12:26;;;;;;;8.53;3.87;;;16.00;99.90;;;;;;5103407;28;20200;-45
2021/07/19 04:14:53;;;;;;;4.47;3.30;;;16.00;99.90;;;;;;5089573;28;20225;-45
2021/07/19 04:17:21;;;;;;;8.83;4.13;;;16.00;99.90;;;;;;5100836;28;20628;-44
2021/07/19 04:19:48;;;;;;;5.43;4.27;;;16.00;99.90;;;;;;5089222;28;20216;-47
2021/07/19 04:22:19;;;;;;;7.77;3.80;;;16.00;99.90;;;;;;5102375;28;20212;-45
2021/07/19 04:25:09;;;;;;;8.67;4.10;;;16.00;99.90;;;;;;5101016;28;20213;-46
2021/07/19 04:27:37;;;;;;;9.87;3.90;;;16.00;99.90;;;;;;5101871;28;20221;-47
2021/07/19 04:30:05;;;;;;;6.47;4.10;;;16.00;99.90;;;;;;5101632;28;20174;-45
2021/07/19 04:32:47;;;;;;;6.17;3.60;;;16.00;99.90;;;;;;5089897;28;20592;-47
2021/07/19 04:35:18;;;;;;;6.80;4.30;;;16.00;99.90;;;;;;5103681;28;20213;-46
2021/07/19 04:37:47;;;;;;;5.10;3.57;;;16.00;99.90;;;;;;5070472;28;20217;-49
2021/07/19 04:40:17;;;;;;;8.83;4.67;;;16.00;99.90;;;;;;5081937;28;20194;-44
2021/07/19 04:42:44;;;;;;;6.73;4.50;;;16.00;99.90;;;;;;5080777;28;20190;-49
2021/07/19 04:45:12;;;;;;;9.43;4.60;;;16.00;99.90;;;;;;5082545;28;20210;-45
2021/07/19 04:47:38;;;;;;;8.83;4.13;;;16.00;99.90;;;;;;5083649;28;20575;-46
2021/07/19 04:50:06;;;;;;;6.20;5.13;;;16.00;99.90;;;;;;5101803;28;20196;-45
2021/07/19 04:52:50;;;;;;;8.30;4.17;;;16.00;99.90;;;;;;5071214;28;20205;-48
2021/07/19 04:55:20;;;;;;;7.50;4.80;;;16.10;99.90;;;;;;5083324;28;20221;-45
2021/07/19 04:57:50;;;;;;;10.20;4.57;;;16.10;99.90;;;;;;5080101;28;20194;-49
2021/07/19 05:00:18;;;;;;;8.53;4.37;;;16.10;99.90;;;;;;5083577;28;20193;-48
2021/07/19 05:02:46;;;;;;;5.67;4.57;;;16.10;99.90;;;;;;5085912;28;20201;-48
2021/07/19 05:05:17;;;;;;;8.03;4.70;;;16.10;99.90;;;;;;5107251;28;20208;-45
2021/07/19 05:07:45;;;;;;;8.40;4.93;;;16.10;99.90;;;;;;5092651;28;20216;-49
2021/07/19 05:10:16;;;;;;;7.80;4.30;;;16.10;99.90;;;;;;5106505;28;20200;-45
2021/07/19 05:12:46;;;;;;;5.97;4.17;;;16.10;99.90;;;;;;5105342;28;20189;-47
2021/07/19 05:15:14;;;;;;;6.73;4.40;;;16.10;99.90;;;;;;5107464;28;20244;-44
2021/07/19 05:17:42;;;;;;;6.47;4.40;;;16.10;99.90;;;;;;5096003;28;20208;-49
2021/07/19 05:20:12;;;;;;;10.27;4.67;;;16.10;99.90;;;;;;5102640;28;20997;-45
2021/07/19 05:22:39;;;;;;;10.30;4.80;;;16.10;99.90;;;;;;5099279;28;20205;-48
2021/07/19 05:25:07;;;;;;;6.53;4.63;;;16.10;99.90;;;;;;5099717;28;20213;-45
2021/07/19 05:27:37;;;;;;;7.87;4.63;;;16.10;99.90;;;;;;5107069;28;20628;-48
2021/07/19 05:30:05;;;;;;;6.70;4.27;;;16.10;99.90;;;;;;5105059;28;20499;-45
2021/07/19 05:32:31;;;;;;;7.13;4.80;;;16.10;99.90;;;;;;5106902;28;20189;-48
2021/07/19 05:34:58;;;;;;;8.20;4.27;;;16.20;99.90;;;;;;5095469;28;20986;-46
2021/07/19 05:37:25;;;;;;;6.47;3.83;;;16.30;99.90;;;;;;5107383;28;20185;-44
2021/07/19 05:39:51;;;;;;;7.63;4.40;;;16.30;99.90;;;;;;5083289;28;20304;-47
2021/07/19 05:42:18;;;;;;;4.90;4.43;;;16.30;99.90;;;;;;5101276;28;20191;-45
2021/07/19 05:44:46;;;;;;;6.83;4.50;;;16.40;99.90;;;;;;5100303;28;20217;-46
2021/07/19 05:47:13;;;;;;;5.43;4.17;;;16.40;99.90;;;;;;5098973;28;20266;-48
2021/07/19 05:49:40;;;;;;;6.70;4.50;;;16.40;99.90;;;;;;5085510;28;20213;-47
2021/07/19 05:52:07;;;;;;;6.67;4.77;;;16.30;99.90;;;;;;5092418;28;20232;-45
2021/07/19 05:54:33;;;;;;;6.60;4.33;;;16.40;99.90;;;;;;5093972;28;20601;-44
2021/07/19 05:57:01;;;;;;;7.87;4.80;;;16.40;99.90;;;;;;5103862;28;20190;-48
2021/07/19 05:59:27;;;;;;;6.37;4.47;;;16.40;99.90;;;;;;5101920;28;20270;-45
2021/07/19 06:01:55;;;;;;;7.87;4.57;;;16.40;99.90;;;;;;5098284;28;20665;-49
2021/07/19 06:04:22;;;;;;;8.10;4.63;;;16.50;99.90;;;;;;5092345;28;20229;-44
2021/07/19 06:06:49;;;;;;;6.77;4.90;;;16.50;99.90;;;;;;5103133;28;20214;-48
2021/07/19 06:09:15;;;;;;;7.87;5.20;;;16.50;99.90;;;;;;5087575;28;20205;-45
2021/07/19 06:11:42;;;;;;;4.30;3.90;;;16.50;99.90;;;;;;5089496;28;20209;-44
2021/07/19 06:14:08;;;;;;;8.67;4.47;;;16.60;99.90;;;;;;5088621;28;20292;-44
2021/07/19 06:16:35;;;;;;;6.67;4.90;;;16.60;99.90;;;;;;5100323;28;20552;-46
2021/07/19 06:19:03;;;;;;;7.77;4.70;;;16.60;99.90;;;;;;5090940;28;20197;-46
2021/07/19 06:21:30;;;;;;;8.30;4.63;;;16.60;99.90;;;;;;5105470;28;20202;-45
2021/07/19 06:23:57;;;;;;;4.00;3.70;;;16.70;99.90;;;;;;5097458;28;20660;-48
2021/07/19 06:26:23;;;;;;;6.23;4.30;;;16.60;99.90;;;;;;5092199;28;20205;-47
2021/07/19 06:28:50;;;;;;;8.97;4.67;;;16.70;99.90;;;;;;5103224;28;20270;-49
2021/07/19 06:31:17;;;;;;;5.97;4.27;;;16.70;99.90;;;;;;5097462;28;20208;-46
2021/07/19 06:33:43;;;;;;;6.00;4.30;;;16.80;99.90;;;;;;5091080;28;20719;-45
2021/07/19 06:36:11;;;;;;;5.17;4.03;;;16.80;99.90;;;;;;5083811;28;20190;-46
2021/07/19 06:38:38;;;;;;;6.07;4.63;;;16.80;99.90;;;;;;5102037;28;20201;-45
2021/07/19 06:41:05;;;;;;;7.07;4.30;;;16.80;99.90;;;;;;5093510;28;20201;-50
2021/07/19 06:43:32;;;;;;;9.03;4.67;;;16.80;99.90;;;;;;5088568;28;20262;-47
2021/07/19 06:45:58;;;;;;;7.93;4.70;;;16.90;99.90;;;;;;5097362;28;20295;-48
2021/07/19 06:48:25;;;;;;;8.10;4.73;;;16.90;99.90;;;;;;5097224;28;20205;-44
2021/07/19 06:50:52;;;;;;;6.90;4.40;;;17.00;99.90;;;;;;5095744;28;20202;-50
2021/07/19 06:53:20;;;;;;;6.73;5.00;;;17.00;99.90;;;;;;5089151;28;20196;-45
2021/07/19 06:55:46;;;;;;;5.53;4.40;;;17.10;99.90;;;;;;5097899;28;20193;-48
2021/07/19 06:58:13;;;;;;;8.40;4.67;;;17.10;99.90;;;;;;5088948;28;20205;-48
2021/07/19 07:00:40;;;;;;;5.27;4.77;;;17.10;99.90;;;;;;5100005;28;20193;-45
2021/07/19 07:03:06;;;;;;;4.73;3.70;;;17.20;99.90;;;;;;5092319;28;20197;-48
2021/07/19 07:05:33;;;;;;;4.10;3.67;;;17.20;99.90;;;;;;5101468;28;20225;-45
2021/07/19 07:07:59;;;;;;;4.30;3.73;;;17.20;99.90;;;;;;5089701;28;20217;-47
2021/07/19 07:10:27;;;;;;;5.63;4.07;;;17.20;99.90;;;;;;5097596;28;20278;-45
2021/07/19 07:12:54;;;;;;;3.83;3.23;;;17.20;99.90;;;;;;5094086;28;20535;-44
2021/07/19 07:15:21;;;;;;;4.53;3.70;;;17.10;99.90;;;;;;5094656;28;20213;-43
2021/07/19 07:17:50;;;;;;;5.10;3.43;;;17.20;99.90;;;;;;5092516;28;20540;-47
2021/07/19 07:20:17;;;;;;;5.03;3.50;;;17.20;99.90;;;;;;5096947;28;20263;-46
2021/07/19 07:22:45;;;;;;;4.57;3.37;;;17.30;99.90;;;;;;5099373;28;20558;-43
2021/07/19 07:25:12;;;;;;;5.43;3.30;;;17.40;99.90;;;;;;5091480;28;20220;-45
2021/07/19 07:27:41;;;;;;;6.00;3.80;;;17.40;99.90;;;;;;5095911;28;20209;-43
2021/07/19 07:30:10;;;;;;;4.67;3.33;;;17.40;99.90;;;;;;5077454;28;20193;-44
2021/07/19 07:32:38;;;;;;;4.10;3.57;;;17.40;99.90;;;;;;5099535;28;20205;-44
2021/07/19 07:35:05;;;;;;;3.60;3.07;;;17.40;99.90;;;;;;5080215;28;20217;-48
2021/07/19 07:37:32;;;;;;;4.80;3.53;;;17.40;99.90;;;;;;5097246;28;20186;-46
2021/07/19 07:39:59;;;;;;;4.90;3.13;;;17.40;99.90;;;;;;5085728;28;20197;-47
2021/07/19 07:42:28;;;;;;;4.87;3.37;;;17.50;99.90;;;;;;5100514;28;20191;-46
2021/07/19 07:44:57;;;;;;;6.03;3.10;;;17.50;99.90;;;;;;5081231;28;20216;-48
2021/07/19 07:47:23;;;;;;;3.53;3.17;;;17.60;99.90;;;;;;5095822;28;20206;-44
2021/07/19 07:49:50;;;;;;;4.40;2.40;;;17.60;99.90;;;;;;5092858;28;20194;-47
2021/07/19 07:52:17;;;;;;;2.67;1.90;;;17.60;99.90;;;;;;5091508;28;20189;-44
2021/07/19 07:54:44;;;;;;;5.23;2.23;;;17.60;99.90;;;;;;5088026;28;20233;-46
2021/07/19 07:57:11;;;;;;;3.17;2.40;;;17.60;99.90;;;;;;5097188;28;20194;-45
2021/07/19 07:59:38;;;;;;;3.93;2.43;;;17.60;99.90;;;;;;5097694;28;20202;-46
2021/07/19 08:02:06;;;;;;;4.03;2.30;;;17.50;99.90;;;;;;5082970;28;20190;-48
2021/07/19 08:04:34;;;;;;;4.23;2.50;;;17.60;99.90;;;;;;5093263;28;20213;-46
2021/07/19 08:07:02;;;;;;;4.50;2.67;;;17.50;99.90;;;;;;5085378;28;20273;-46
2021/07/19 08:09:29;;;;;;;3.63;2.40;;;17.60;99.90;;;;;;5084525;28;20197;-47
2021/07/19 08:11:56;;;;;;;3.73;2.30;;;17.60;99.90;;;;;;5086034;28;20330;-51
2021/07/19 08:14:22;;;;;;;6.30;2.90;;;17.70;99.90;;;;;;5090048;28;20214;-45
2021/07/19 08:16:49;;;;;;;6.73;3.10;;;17.70;99.90;;;;;;5080811;28;20212;-50
2021/07/19 08:19:18;;;;;;;3.57;2.70;;;17.80;99.90;;;;;;5091089;28;20216;-45
2021/07/19 08:21:45;;;;;;;4.10;2.47;;;17.70;99.90;;;;;;5099087;28;20692;-48
2021/07/19 08:24:12;;;;;;;4.67;2.37;;;17.60;99.90;;;;;;5090284;28;20292;-46
2021/07/19 08:26:38;;;;;;;5.73;2.83;;;17.70;99.90;;;;;;5081002;28;20205;-50
2021/07/19 08:29:06;;;;;;;4.10;2.70;;;17.70;99.90;;;;;;5094873;28;20205;-48
2021/07/19 08:31:33;;;;;;;6.70;2.63;;;17.70;99.90;;;;;;5086745;28;20686;-44
2021/07/19 08:34:00;;;;;;;7.20;2.80;;;17.80;99.90;;;;;;5094875;28;20240;-45
2021/07/19 08:36:28;;;;;;;5.33;2.47;;;17.90;99.90;;;;;;5097696;28;20197;-45
2021/07/19 08:38:55;;;;;;;7.23;2.30;;;17.90;99.90;;;;;;5089572;28;20193;-47
2021/07/19 08:41:22;;;;;;;4.10;2.53;;;17.90;99.90;;;;;;5093552;28;20201;-44
2021/07/19 08:43:48;;;;;;;2.50;2.30;;;18.00;99.90;;;;;;5091905;28;20221;-48
2021/07/19 08:46:17;;;;;;;2.33;2.13;;;18.00;99.90;;;;;;5081103;28;20208;-47
2021/07/19 08:48:45;;;;;;;3.43;2.17;;;18.10;99.90;;;;;;5093784;28;20222;-45
2021/07/19 08:51:13;;;;;;;2.87;1.63;;;18.10;99.90;;;;;;5091553;28;20189;-49
2021/07/19 08:53:42;;;;;;;2.10;1.80;;;18.10;99.90;;;;;;5092267;28;20244;-45
2021/07/19 08:56:09;;;;;;;4.70;2.20;;;18.10;99.90;;;;;;5093077;28;20190;-47
2021/07/19 08:58:37;;;;;;;7.30;2.50;;;18.20;99.90;;;;;;5094535;28;20195;-44
2021/07/19 09:01:05;;;;;;;4.47;2.63;;;18.10;99.90;;;;;;5088981;28;20201;-46
2021/07/19 09:03:32;;;;;;;5.37;2.30;;;18.20;99.90;;;;;;5090159;28;20213;-46
2021/07/19 09:05:59;;;;;;;4.27;2.30;;;18.10;99.90;;;;;;5102113;28;20741;-45
2021/07/19 09:08:26;;;;;;;5.13;2.10;;;18.20;99.90;;;;;;5086714;28;20205;-46
2021/07/19 09:10:54;;;;;;;2.40;2.10;;;18.20;99.90;;;;;;5088030;28;20206;-47
2021/07/19 09:13:22;;;;;;;3.73;2.10;;;18.30;99.90;;;;;;5089600;28;20677;-50
2021/07/19 09:15:58;;;;;;;4.80;2.27;;;18.40;99.90;;;;;;5101538;28;20193;-46
2021/07/19 09:18:25;;;;;;;2.37;1.80;;;18.40;99.90;;;;;;5085353;28;20189;-48
2021/07/19 09:20:53;;;;;;;1.70;1.60;;;18.50;99.90;;;;;;5097098;28;20227;-46
2021/07/19 09:23:27;;;;;;;4.20;2.20;;;18.50;99.90;;;;;;5095466;28;20198;-50
2021/07/19 09:25:55;;;;;;;4.83;1.93;;;18.50;99.90;;;;;;5098148;28;20196;-49
2021/07/19 09:28:28;;;;;;;2.03;1.53;;;18.60;99.90;;;;;;5089567;28;20581;-46
2021/07/19 09:30:55;;;;;;;3.60;1.70;;;18.60;99.90;;;;;;5093061;28;20202;-46
2021/07/19 09:33:22;;;;;;;4.10;2.20;;;18.60;99.90;;;;;;5083797;28;20201;-47
2021/07/19 09:35:51;;;;;;;3.60;1.47;;;18.50;99.90;;;;;;5095367;28;20194;-46
2021/07/19 09:38:19;;;;;;;2.53;1.60;;;18.50;99.90;;;;;;5095010;28;20182;-51
2021/07/19 09:40:48;;;;;;;4.10;1.90;;;18.60;99.90;;;;;;5089949;28;20202;-45
2021/07/19 09:43:18;;;;;;;3.23;2.20;;;18.60;99.90;;;;;;5084238;28;20194;-49
2021/07/19 09:45:56;;;;;;;2.50;2.07;;;18.70;99.90;;;;;;5099885;28;20670;-49
2021/07/19 09:48:22;;;;;;;4.87;2.47;;;18.60;99.90;;;;;;5081900;28;20224;-49
2021/07/19 09:50:52;;;;;;;3.17;1.97;;;18.50;99.90;;;;;;5102018;28;20620;-48
2021/07/19 09:53:28;;;;;;;2.97;2.07;;;18.50;99.90;;;;;;5093930;28;20226;-49
2021/07/19 09:55:55;;;;;;;3.20;2.00;;;18.50;99.90;;;;;;5102036;27;20177;-45
2021/07/19 09:58:23;;;;;;;2.00;1.83;;;18.50;99.90;;;;;;5084012;28;20192;-47
2021/07/19 10:00:50;;;;;;;5.00;2.20;;;18.40;99.90;;;;;;5103477;28;20198;-46
2021/07/19 10:03:17;;;;;;;3.60;2.20;;;18.40;99.90;;;;;;5090325;28;20201;-51
2021/07/19 10:05:44;;;;;;;3.33;2.50;;;18.40;99.90;;;;;;5101265;28;20686;-47
2021/07/19 10:08:20;;;;;;;3.60;2.13;;;18.40;99.90;;;;;;5093132;28;20233;-47
2021/07/19 10:10:47;;;;;;;2.20;2.00;;;18.50;99.90;;;;;;5091795;28;20189;-46
2021/07/19 10:13:16;;;;;;;2.60;2.40;;;18.50;99.90;;;;;;5087248;28;20689;-49
2021/07/19 10:15:45;;;;;;;3.50;1.83;;;18.70;99.90;;;;;;5102152;28;20225;-45
2021/07/19 10:18:12;;;;;;;3.67;2.10;;;18.80;99.90;;;;;;5099126;28;20185;-48
2021/07/19 10:20:40;;;;;;;4.23;1.93;;;18.70;99.90;;;;;;5098417;28;20205;-46
2021/07/19 10:23:07;;;;;;;3.10;2.20;;;18.70;99.90;;;;;;5100597;28;20201;-49
2021/07/19 10:25:37;;;;;;;3.03;1.50;;;18.80;99.90;;;;;;5103357;28;20717;-46
2021/07/19 10:28:04;;;;;;;1.90;1.70;;;18.90;99.90;;;;;;5106470;28;20242;-45
2021/07/19 10:30:31;;;;;;;3.43;1.63;;;19.10;99.90;;;;;;5094445;28;20193;-44
2021/07/19 10:33:00;;;;;;;4.00;2.00;;;19.10;99.80;;;;;;5101651;28;20194;-49
2021/07/19 10:35:28;;;;;;;5.20;2.20;;;19.10;99.90;;;;;;5078317;28;22004;-46
2021/07/19 10:37:58;;;;;;;3.27;1.97;;;19.10;99.90;;;;;;5091675;28;20201;-45
2021/07/19 10:40:28;;;;;;;2.70;2.03;;;19.20;99.90;;;;;;5091804;28;20189;-45
2021/07/19 10:43:06;;;;;;;3.93;1.70;;;19.20;99.80;;;;;;5096134;28;20201;-45
2021/07/19 10:45:40;;;;;;;4.77;1.93;;;19.20;99.80;;;;;;5092357;28;20853;-47
2021/07/19 10:48:08;;;;;;;2.80;2.20;;;19.10;99.80;;;;;;5091874;28;20652;-49
2021/07/19 10:50:39;;;;;;;3.63;2.00;;;18.90;99.90;;;;;;5088332;28;20201;-45
2021/07/19 10:53:16;;;;;;;3.17;2.30;;;18.80;99.90;;;;;;5090860;28;20209;-45
2021/07/19 10:55:43;;;;;;;4.90;2.53;;;18.90;99.90;;;;;;5099717;28;20278;-46
2021/07/19 10:58:16;;;;;;;2.63;2.13;;;19.00;99.90;;;;;;5090397;28;20194;-45
2021/07/19 11:00:44;;;;;;;5.57;1.83;;;19.00;99.90;;;;;;5092058;28;23645;-44
2021/07/19 11:03:14;;;;;;;4.57;2.10;;;19.00;99.90;;;;;;5078061;28;20208;-47
2021/07/19 11:05:42;;;;;;;3.43;2.13;;;19.00;99.90;;;;;;5085065;28;20309;-46
2021/07/19 11:08:20;;;;;;;2.90;2.37;;;18.90;99.90;;;;;;5091633;28;20217;-47
2021/07/19 11:10:48;;;;;;;3.97;2.03;;;18.80;99.90;;;;;;5084390;28;20563;-44
2021/07/19 11:13:26;;;;;;;4.83;2.20;;;18.80;99.90;;;;;;5098060;28;20190;-48
2021/07/19 11:15:52;;;;;;;4.27;1.93;;;18.80;99.90;;;;;;5095658;28;20193;-45
2021/07/19 11:18:25;;;;;;;3.60;2.27;;;18.70;99.90;;;;;;5084713;28;20197;-48
2021/07/19 11:20:53;;;;;;;4.97;2.30;;;18.70;99.90;;;;;;5085280;28;20573;-48
2021/07/19 11:23:31;;;;;;;5.00;2.10;;;18.60;99.90;;;;;;5090254;28;20289;-47
2021/07/19 11:25:59;;;;;;;4.20;2.27;;;18.50;99.90;;;;;;5103249;28;20193;-46
2021/07/19 11:28:29;;;;;;;3.10;2.10;;;18.40;99.90;;;;;;5077542;28;20502;-45
2021/07/19 11:31:04;;;;;;;2.70;2.47;;;18.40;99.90;;;;;;5085116;28;20634;-44
2021/07/19 11:33:34;;;;;;;2.77;2.30;;;18.40;99.90;;;;;;5082808;28;20967;-45
2021/07/19 11:36:03;;;;;;;2.73;2.20;;;18.50;99.90;;;;;;5102573;28;20186;-45
2021/07/19 11:38:37;;;;;;;3.13;2.10;;;18.40;99.90;;;;;;5075243;28;20282;-45
2021/07/19 11:41:14;;;;;;;5.17;2.67;;;18.50;99.90;;;;;;5102249;28;20205;-47
2021/07/19 11:43:41;;;;;;;2.53;2.33;;;18.60;99.90;;;;;;5092721;28;20209;-44
2021/07/19 11:46:09;;;;;;;6.63;2.50;;;18.50;99.90;;;;;;5095904;28;20197;-48
2021/07/19 11:48:41;;;;;;;10.07;2.97;;;18.50;99.90;;;;;;5085199;28;20213;-48
2021/07/19 11:51:08;;;;;;;5.30;2.57;;;18.50;99.90;;;;;;5098187;28;20201;-48
2021/07/19 11:53:42;;;;;;;5.53;2.40;;;18.60;99.90;;;;;;5086843;28;20208;-47
2021/07/19 11:56:09;;;;;;;3.97;2.10;;;18.60;99.90;;;;;;5093987;28;20207;-47
2021/07/19 11:58:36;;;;;;;5.27;2.40;;;18.60;99.90;;;;;;5089625;28;20212;-46
2021/07/19 12:01:05;;;;;;;4.10;2.50;;;18.70;99.90;;;;;;5101715;28;20202;-46
2021/07/19 12:03:31;;;;;;;1.87;1.67;;;18.80;99.90;;;;;;5083695;28;20205;-44
2021/07/19 12:06:00;;;;;;;2.20;1.83;;;18.90;99.90;;;;;;5099286;28;20193;-46
2021/07/19 12:08:29;;;;;;;2.63;2.03;;;19.10;99.90;;;;;;5082426;28;20223;-45
2021/07/19 12:11:00;;;;;;;3.33;2.10;;;19.20;99.90;;;;;;5094925;28;20292;-45
2021/07/19 12:13:35;;;;;;;3.30;2.27;;;19.20;99.90;;;;;;5082885;28;20190;-45
2021/07/19 12:16:02;;;;;;;3.80;2.30;;;19.30;99.90;;;;;;5091928;28;20283;-47
2021/07/19 12:18:31;;;;;;;3.47;2.33;;;19.30;99.90;;;;;;5088708;28;20215;-44
2021/07/19 12:21:01;;;;;;;3.43;1.80;;;19.40;99.90;;;;;;5093474;28;20653;-45
2021/07/19 12:23:42;;;;;;;5.80;2.37;;;19.50;99.90;;;;;;5085656;28;20250;-44
2021/07/19 12:26:11;;;;;;;2.90;2.10;;;19.50;99.90;;;;;;5091026;28;20194;-51
2021/07/19 12:28:38;;;;;;;9.33;2.53;;;19.50;99.90;;;;;;5091892;28;20197;-45
2021/07/19 12:31:15;;;;;;;2.70;2.30;;;19.40;99.90;;;;;;5095118;28;20268;-47
2021/07/19 12:33:42;;;;;;;5.03;2.70;;;19.40;99.90;;;;;;5090276;28;20205;-47
2021/07/19 12:36:10;;;;;;;3.70;2.43;;;19.20;99.90;;;;;;5084904;28;20266;-46
2021/07/19 12:38:38;;;;;;;4.10;2.50;;;19.20;99.90;;;;;;5077957;28;20212;-47
2021/07/19 12:41:10;;;;;;;3.53;2.20;;;19.10;99.90;;;;;;5092442;28;20186;-46
2021/07/19 12:43:37;;;;;;;4.50;2.40;;;19.00;99.90;;;;;;5084329;28;20225;-46
2021/07/19 12:46:03;;;;;;;3.70;2.20;;;18.90;99.90;;;;;;5097956;28;20212;-44
2021/07/19 12:48:31;;;;;;;4.30;2.40;;;18.80;99.90;;;;;;5091919;28;20204;-45
2021/07/19 12:51:01;;;;;;;4.23;2.30;;;18.70;99.90;;;;;;5096672;28;20243;-45
2021/07/19 12:53:34;;;;;;;2.73;2.07;;;18.70;99.90;;;;;;5075285;28;20202;-47
2021/07/19 12:56:11;;;;;;;2.60;2.07;;;18.70;99.90;;;;;;5096518;28;20561;-46
2021/07/19 12:58:40;;;;;;;3.43;2.30;;;18.70;99.90;;;;;;5091723;28;20204;-46